sensor_id;sensor_type;location;lat;lon;timestamp;P1;durP1;ratioP1;P2;durP2;ratioP2
7460;SDS011;6757;52.258;12.840;2023-06-10T00:01:39;8.02;;;3.15;;
7460;SDS011;6757;52.258;12.840;2023-06-10T00:04:06;5.78;;;2.72;;
7460;SDS011;6757;52.258;12.840;2023-06-10T00:06:33;6.03;;;2.90;;
7460;SDS011;6757;52.258;12.840;2023-06-10T00:09:03;7.07;;;3.03;;
7460;SDS011;6757;52.258;12.840;2023-06-10T00:11:32;6.72;;;2.95;;
7460;SDS011;6757;52.258;12.840;2023-06-10T00:14:00;5.20;;;2.65;;
7460;SDS011;6757;52.258;12.840;2023-06-10T00:16:27;6.68;;;2.83;;
7460;SDS011;6757;52.258;12.840;2023-06-10T00:18:54;7.05;;;2.95;;
7460;SDS011;6757;52.258;12.840;2023-06-10T00:21:26;5.90;;;2.40;;
7460;SDS011;6757;52.258;12.840;2023-06-10T00:23:53;7.07;;;2.72;;
7460;SDS011;6757;52.258;12.840;2023-06-10T00:26:22;9.50;;;2.92;;
7460;SDS011;6757;52.258;12.840;2023-06-10T00:28:51;6.43;;;2.80;;
7460;SDS011;6757;52.258;12.840;2023-06-10T00:31:18;7.15;;;2.67;;
7460;SDS011;6757;52.258;12.840;2023-06-10T00:33:45;6.65;;;2.83;;
7460;SDS011;6757;52.258;12.840;2023-06-10T00:36:12;6.57;;;3.17;;
7460;SDS011;6757;52.258;12.840;2023-06-10T00:38:39;4.38;;;2.58;;
7460;SDS011;6757;52.258;12.840;2023-06-10T00:41:06;9.43;;;2.95;;
7460;SDS011;6757;52.258;12.840;2023-06-10T00:43:35;7.05;;;3.10;;
7460;SDS011;6757;52.258;12.840;2023-06-10T00:46:02;5.97;;;2.75;;
7460;SDS011;6757;52.258;12.840;2023-06-10T00:48:29;9.85;;;3.13;;
7460;SDS011;6757;52.258;12.840;2023-06-10T00:50:56;6.68;;;2.58;;
7460;SDS011;6757;52.258;12.840;2023-06-10T00:53:24;6.90;;;2.45;;
7460;SDS011;6757;52.258;12.840;2023-06-10T00:55:51;4.70;;;2.55;;
7460;SDS011;6757;52.258;12.840;2023-06-10T00:58:19;7.32;;;2.90;;
7460;SDS011;6757;52.258;12.840;2023-06-10T01:00:47;5.90;;;2.70;;
7460;SDS011;6757;52.258;12.840;2023-06-10T01:03:14;5.53;;;2.55;;
7460;SDS011;6757;52.258;12.840;2023-06-10T01:05:42;7.82;;;2.80;;
7460;SDS011;6757;52.258;12.840;2023-06-10T01:08:12;6.93;;;3.00;;
7460;SDS011;6757;52.258;12.840;2023-06-10T01:10:46;4.63;;;2.45;;
7460;SDS011;6757;52.258;12.840;2023-06-10T01:13:20;6.85;;;2.83;;
7460;SDS011;6757;52.258;12.840;2023-06-10T01:15:55;5.25;;;2.50;;
7460;SDS011;6757;52.258;12.840;2023-06-10T01:18:22;7.35;;;2.90;;
7460;SDS011;6757;52.258;12.840;2023-06-10T01:20:53;6.10;;;2.72;;
7460;SDS011;6757;52.258;12.840;2023-06-10T01:23:22;6.63;;;3.05;;
7460;SDS011;6757;52.258;12.840;2023-06-10T01:25:51;4.82;;;2.55;;
7460;SDS011;6757;52.258;12.840;2023-06-10T01:28:25;7.07;;;3.03;;
7460;SDS011;6757;52.258;12.840;2023-06-10T01:30:59;8.60;;;3.13;;
7460;SDS011;6757;52.258;12.840;2023-06-10T01:36:40;8.27;;;3.40;;
7460;SDS011;6757;52.258;12.840;2023-06-10T01:39:12;5.85;;;2.55;;
7460;SDS011;6757;52.258;12.840;2023-06-10T01:41:41;5.35;;;2.95;;
7460;SDS011;6757;52.258;12.840;2023-06-10T01:44:08;10.18;;;3.20;;
7460;SDS011;6757;52.258;12.840;2023-06-10T01:46:35;7.18;;;3.00;;
7460;SDS011;6757;52.258;12.840;2023-06-10T01:49:02;6.07;;;2.67;;
7460;SDS011;6757;52.258;12.840;2023-06-10T01:51:29;4.88;;;2.65;;
7460;SDS011;6757;52.258;12.840;2023-06-10T01:53:57;5.85;;;2.47;;
7460;SDS011;6757;52.258;12.840;2023-06-10T01:56:25;7.15;;;2.88;;
7460;SDS011;6757;52.258;12.840;2023-06-10T01:58:52;7.68;;;3.03;;
7460;SDS011;6757;52.258;12.840;2023-06-10T02:01:23;7.00;;;2.78;;
7460;SDS011;6757;52.258;12.840;2023-06-10T02:03:50;5.70;;;2.40;;
7460;SDS011;6757;52.258;12.840;2023-06-10T02:06:17;8.15;;;2.72;;
7460;SDS011;6757;52.258;12.840;2023-06-10T02:08:44;7.20;;;2.75;;
7460;SDS011;6757;52.258;12.840;2023-06-10T02:11:11;9.65;;;3.25;;
7460;SDS011;6757;52.258;12.840;2023-06-10T02:13:40;5.45;;;2.80;;
7460;SDS011;6757;52.258;12.840;2023-06-10T02:16:07;4.90;;;2.47;;
7460;SDS011;6757;52.258;12.840;2023-06-10T02:18:34;5.53;;;2.40;;
7460;SDS011;6757;52.258;12.840;2023-06-10T02:21:01;9.43;;;3.33;;
7460;SDS011;6757;52.258;12.840;2023-06-10T02:23:28;7.22;;;2.92;;
7460;SDS011;6757;52.258;12.840;2023-06-10T02:25:55;6.15;;;2.72;;
7460;SDS011;6757;52.258;12.840;2023-06-10T02:28:22;4.95;;;2.13;;
7460;SDS011;6757;52.258;12.840;2023-06-10T02:30:51;8.70;;;2.70;;
7460;SDS011;6757;52.258;12.840;2023-06-10T02:33:18;4.00;;;2.28;;
7460;SDS011;6757;52.258;12.840;2023-06-10T02:35:45;4.72;;;2.40;;
7460;SDS011;6757;52.258;12.840;2023-06-10T02:38:12;5.65;;;2.40;;
7460;SDS011;6757;52.258;12.840;2023-06-10T02:40:39;8.23;;;2.85;;
7460;SDS011;6757;52.258;12.840;2023-06-10T02:43:06;5.70;;;2.53;;
7460;SDS011;6757;52.258;12.840;2023-06-10T02:45:33;6.28;;;2.55;;
7460;SDS011;6757;52.258;12.840;2023-06-10T02:48:01;5.60;;;2.50;;
7460;SDS011;6757;52.258;12.840;2023-06-10T02:50:28;8.27;;;3.08;;
7460;SDS011;6757;52.258;12.840;2023-06-10T02:52:55;6.00;;;2.60;;
7460;SDS011;6757;52.258;12.840;2023-06-10T02:55:22;9.77;;;2.50;;
7460;SDS011;6757;52.258;12.840;2023-06-10T02:57:51;6.72;;;2.88;;
7460;SDS011;6757;52.258;12.840;2023-06-10T03:00:19;6.85;;;2.67;;
7460;SDS011;6757;52.258;12.840;2023-06-10T03:02:46;8.52;;;3.10;;
7460;SDS011;6757;52.258;12.840;2023-06-10T03:05:15;6.32;;;2.75;;
7460;SDS011;6757;52.258;12.840;2023-06-10T03:07:42;5.13;;;2.63;;
7460;SDS011;6757;52.258;12.840;2023-06-10T03:10:11;5.03;;;2.55;;
7460;SDS011;6757;52.258;12.840;2023-06-10T03:12:38;6.80;;;2.40;;
7460;SDS011;6757;52.258;12.840;2023-06-10T03:15:05;7.43;;;3.45;;
7460;SDS011;6757;52.258;12.840;2023-06-10T03:17:33;9.10;;;3.05;;
7460;SDS011;6757;52.258;12.840;2023-06-10T03:20:00;6.85;;;2.72;;
7460;SDS011;6757;52.258;12.840;2023-06-10T03:22:29;6.40;;;3.03;;
7460;SDS011;6757;52.258;12.840;2023-06-10T03:24:56;7.57;;;3.10;;
7460;SDS011;6757;52.258;12.840;2023-06-10T03:27:24;7.25;;;2.53;;
7460;SDS011;6757;52.258;12.840;2023-06-10T03:29:51;7.43;;;2.60;;
7460;SDS011;6757;52.258;12.840;2023-06-10T03:32:18;7.95;;;3.05;;
7460;SDS011;6757;52.258;12.840;2023-06-10T03:34:45;7.25;;;2.92;;
7460;SDS011;6757;52.258;12.840;2023-06-10T03:37:12;7.22;;;3.00;;
7460;SDS011;6757;52.258;12.840;2023-06-10T03:39:41;7.40;;;2.53;;
7460;SDS011;6757;52.258;12.840;2023-06-10T03:42:08;8.10;;;2.83;;
7460;SDS011;6757;52.258;12.840;2023-06-10T03:44:35;7.20;;;2.50;;
7460;SDS011;6757;52.258;12.840;2023-06-10T03:47:03;6.45;;;2.42;;
7460;SDS011;6757;52.258;12.840;2023-06-10T03:49:30;8.40;;;3.03;;
7460;SDS011;6757;52.258;12.840;2023-06-10T03:51:58;5.82;;;2.25;;
7460;SDS011;6757;52.258;12.840;2023-06-10T03:54:25;6.40;;;2.58;;
7460;SDS011;6757;52.258;12.840;2023-06-10T03:56:53;4.32;;;2.03;;
7460;SDS011;6757;52.258;12.840;2023-06-10T03:59:20;5.40;;;2.60;;
7460;SDS011;6757;52.258;12.840;2023-06-10T04:01:47;7.70;;;3.00;;
7460;SDS011;6757;52.258;12.840;2023-06-10T04:04:14;3.38;;;2.10;;
7460;SDS011;6757;52.258;12.840;2023-06-10T04:06:42;6.28;;;2.60;;
7460;SDS011;6757;52.258;12.840;2023-06-10T04:09:09;7.18;;;2.92;;
7460;SDS011;6757;52.258;12.840;2023-06-10T04:11:37;5.88;;;2.70;;
7460;SDS011;6757;52.258;12.840;2023-06-10T04:14:05;7.50;;;2.60;;
7460;SDS011;6757;52.258;12.840;2023-06-10T04:16:32;6.93;;;2.88;;
7460;SDS011;6757;52.258;12.840;2023-06-10T04:19:00;5.70;;;2.47;;
7460;SDS011;6757;52.258;12.840;2023-06-10T04:21:27;7.20;;;2.60;;
7460;SDS011;6757;52.258;12.840;2023-06-10T04:23:54;8.07;;;2.60;;
7460;SDS011;6757;52.258;12.840;2023-06-10T04:26:21;8.40;;;2.83;;
7460;SDS011;6757;52.258;12.840;2023-06-10T04:28:48;5.07;;;2.30;;
7460;SDS011;6757;52.258;12.840;2023-06-10T04:31:17;9.75;;;2.95;;
7460;SDS011;6757;52.258;12.840;2023-06-10T04:33:44;8.25;;;3.00;;
7460;SDS011;6757;52.258;12.840;2023-06-10T04:36:11;5.90;;;2.60;;
7460;SDS011;6757;52.258;12.840;2023-06-10T04:38:39;7.20;;;2.90;;
7460;SDS011;6757;52.258;12.840;2023-06-10T04:41:06;5.05;;;2.17;;
7460;SDS011;6757;52.258;12.840;2023-06-10T04:43:33;5.07;;;2.30;;
7460;SDS011;6757;52.258;12.840;2023-06-10T04:46:00;5.85;;;2.45;;
7460;SDS011;6757;52.258;12.840;2023-06-10T04:48:29;4.50;;;2.03;;
7460;SDS011;6757;52.258;12.840;2023-06-10T04:50:56;8.57;;;2.55;;
7460;SDS011;6757;52.258;12.840;2023-06-10T04:53:23;5.65;;;2.90;;
7460;SDS011;6757;52.258;12.840;2023-06-10T04:55:50;4.95;;;2.15;;
7460;SDS011;6757;52.258;12.840;2023-06-10T04:58:17;8.13;;;2.58;;
7460;SDS011;6757;52.258;12.840;2023-06-10T05:00:44;6.97;;;2.45;;
7460;SDS011;6757;52.258;12.840;2023-06-10T05:03:11;7.18;;;2.70;;
7460;SDS011;6757;52.258;12.840;2023-06-10T05:05:40;6.20;;;2.30;;
7460;SDS011;6757;52.258;12.840;2023-06-10T05:08:07;5.47;;;2.30;;
7460;SDS011;6757;52.258;12.840;2023-06-10T05:10:34;8.18;;;2.70;;
7460;SDS011;6757;52.258;12.840;2023-06-10T05:13:01;5.18;;;2.42;;
7460;SDS011;6757;52.258;12.840;2023-06-10T05:15:28;5.50;;;2.63;;
7460;SDS011;6757;52.258;12.840;2023-06-10T05:17:56;4.38;;;2.17;;
7460;SDS011;6757;52.258;12.840;2023-06-10T05:20:23;6.38;;;2.58;;
7460;SDS011;6757;52.258;12.840;2023-06-10T05:22:53;7.28;;;2.60;;
7460;SDS011;6757;52.258;12.840;2023-06-10T05:25:19;6.10;;;2.42;;
7460;SDS011;6757;52.258;12.840;2023-06-10T05:27:46;5.97;;;2.25;;
7460;SDS011;6757;52.258;12.840;2023-06-10T05:30:13;4.32;;;2.03;;
7460;SDS011;6757;52.258;12.840;2023-06-10T05:32:43;4.47;;;2.25;;
7460;SDS011;6757;52.258;12.840;2023-06-10T05:35:10;3.95;;;2.20;;
7460;SDS011;6757;52.258;12.840;2023-06-10T05:37:37;4.55;;;2.00;;
7460;SDS011;6757;52.258;12.840;2023-06-10T05:40:06;3.28;;;2.03;;
7460;SDS011;6757;52.258;12.840;2023-06-10T05:42:35;6.03;;;2.50;;
7460;SDS011;6757;52.258;12.840;2023-06-10T05:45:02;5.45;;;2.65;;
7460;SDS011;6757;52.258;12.840;2023-06-10T05:47:29;4.93;;;2.20;;
7460;SDS011;6757;52.258;12.840;2023-06-10T05:49:56;4.45;;;2.33;;
7460;SDS011;6757;52.258;12.840;2023-06-10T05:52:23;4.70;;;2.30;;
7460;SDS011;6757;52.258;12.840;2023-06-10T05:54:51;5.40;;;2.50;;
7460;SDS011;6757;52.258;12.840;2023-06-10T05:57:20;6.72;;;2.58;;
7460;SDS011;6757;52.258;12.840;2023-06-10T05:59:48;6.63;;;2.88;;
7460;SDS011;6757;52.258;12.840;2023-06-10T06:02:15;6.22;;;2.60;;
7460;SDS011;6757;52.258;12.840;2023-06-10T06:04:41;8.80;;;2.80;;
7460;SDS011;6757;52.258;12.840;2023-06-10T06:07:08;6.35;;;2.70;;
7460;SDS011;6757;52.258;12.840;2023-06-10T06:09:35;7.97;;;3.22;;
7460;SDS011;6757;52.258;12.840;2023-06-10T06:12:02;4.80;;;2.50;;
7460;SDS011;6757;52.258;12.840;2023-06-10T06:14:36;8.15;;;3.10;;
7460;SDS011;6757;52.258;12.840;2023-06-10T06:17:04;7.57;;;3.25;;
7460;SDS011;6757;52.258;12.840;2023-06-10T06:19:31;6.95;;;2.85;;
7460;SDS011;6757;52.258;12.840;2023-06-10T06:21:58;7.75;;;3.30;;
7460;SDS011;6757;52.258;12.840;2023-06-10T06:24:25;5.82;;;2.75;;
7460;SDS011;6757;52.258;12.840;2023-06-10T06:26:52;7.28;;;2.88;;
7460;SDS011;6757;52.258;12.840;2023-06-10T06:29:19;7.00;;;3.15;;
7460;SDS011;6757;52.258;12.840;2023-06-10T06:31:47;4.80;;;2.72;;
7460;SDS011;6757;52.258;12.840;2023-06-10T06:34:14;8.13;;;3.40;;
7460;SDS011;6757;52.258;12.840;2023-06-10T06:36:41;11.45;;;3.22;;
7460;SDS011;6757;52.258;12.840;2023-06-10T06:39:08;11.18;;;3.80;;
7460;SDS011;6757;52.258;12.840;2023-06-10T06:41:35;9.07;;;3.97;;
7460;SDS011;6757;52.258;12.840;2023-06-10T06:44:02;9.05;;;3.55;;
7460;SDS011;6757;52.258;12.840;2023-06-10T06:46:30;9.20;;;3.28;;
7460;SDS011;6757;52.258;12.840;2023-06-10T06:48:58;7.82;;;3.28;;
7460;SDS011;6757;52.258;12.840;2023-06-10T06:51:25;8.98;;;3.65;;
7460;SDS011;6757;52.258;12.840;2023-06-10T06:53:52;8.32;;;3.42;;
7460;SDS011;6757;52.258;12.840;2023-06-10T06:56:23;10.20;;;3.55;;
7460;SDS011;6757;52.258;12.840;2023-06-10T06:58:51;9.95;;;3.70;;
7460;SDS011;6757;52.258;12.840;2023-06-10T07:01:18;10.48;;;3.88;;
7460;SDS011;6757;52.258;12.840;2023-06-10T07:03:45;10.18;;;3.30;;
7460;SDS011;6757;52.258;12.840;2023-06-10T07:06:13;10.40;;;3.88;;
7460;SDS011;6757;52.258;12.840;2023-06-10T07:08:40;10.18;;;3.35;;
7460;SDS011;6757;52.258;12.840;2023-06-10T07:11:07;9.25;;;3.60;;
7460;SDS011;6757;52.258;12.840;2023-06-10T07:13:34;10.10;;;3.70;;
7460;SDS011;6757;52.258;12.840;2023-06-10T07:16:01;10.70;;;3.95;;
7460;SDS011;6757;52.258;12.840;2023-06-10T07:18:29;10.07;;;3.47;;
7460;SDS011;6757;52.258;12.840;2023-06-10T07:20:56;7.45;;;3.20;;
7460;SDS011;6757;52.258;12.840;2023-06-10T07:23:24;8.82;;;3.65;;
7460;SDS011;6757;52.258;12.840;2023-06-10T07:25:51;7.45;;;3.33;;
7460;SDS011;6757;52.258;12.840;2023-06-10T07:28:18;10.20;;;3.78;;
7460;SDS011;6757;52.258;12.840;2023-06-10T07:30:45;6.45;;;3.05;;
7460;SDS011;6757;52.258;12.840;2023-06-10T07:33:12;9.48;;;4.38;;
7460;SDS011;6757;52.258;12.840;2023-06-10T07:35:39;7.00;;;3.45;;
7460;SDS011;6757;52.258;12.840;2023-06-10T07:38:08;9.05;;;3.78;;
7460;SDS011;6757;52.258;12.840;2023-06-10T07:40:36;9.15;;;3.65;;
7460;SDS011;6757;52.258;12.840;2023-06-10T07:43:03;10.23;;;4.07;;
7460;SDS011;6757;52.258;12.840;2023-06-10T07:45:30;13.05;;;4.20;;
7460;SDS011;6757;52.258;12.840;2023-06-10T07:47:57;10.73;;;4.28;;
7460;SDS011;6757;52.258;12.840;2023-06-10T07:50:24;9.95;;;3.78;;
7460;SDS011;6757;52.258;12.840;2023-06-10T07:52:50;11.85;;;4.45;;
7460;SDS011;6757;52.258;12.840;2023-06-10T07:55:18;12.57;;;4.10;;
7460;SDS011;6757;52.258;12.840;2023-06-10T07:57:46;10.10;;;4.25;;
7460;SDS011;6757;52.258;12.840;2023-06-10T08:00:13;10.32;;;4.25;;
7460;SDS011;6757;52.258;12.840;2023-06-10T08:02:41;13.00;;;4.43;;
7460;SDS011;6757;52.258;12.840;2023-06-10T08:05:08;13.13;;;4.60;;
7460;SDS011;6757;52.258;12.840;2023-06-10T08:07:35;10.20;;;4.35;;
7460;SDS011;6757;52.258;12.840;2023-06-10T08:10:02;10.02;;;4.32;;
7460;SDS011;6757;52.258;12.840;2023-06-10T08:12:30;10.40;;;4.45;;
7460;SDS011;6757;52.258;12.840;2023-06-10T08:14:58;9.88;;;4.10;;
7460;SDS011;6757;52.258;12.840;2023-06-10T08:17:25;11.90;;;5.00;;
7460;SDS011;6757;52.258;12.840;2023-06-10T08:19:52;12.68;;;4.43;;
7460;SDS011;6757;52.258;12.840;2023-06-10T08:22:19;11.40;;;4.47;;
7460;SDS011;6757;52.258;12.840;2023-06-10T08:24:46;10.77;;;4.57;;
7460;SDS011;6757;52.258;12.840;2023-06-10T08:27:13;11.15;;;4.47;;
7460;SDS011;6757;52.258;12.840;2023-06-10T08:29:40;10.00;;;4.50;;
7460;SDS011;6757;52.258;12.840;2023-06-10T08:32:08;9.63;;;4.10;;
7460;SDS011;6757;52.258;12.840;2023-06-10T08:34:36;9.80;;;4.00;;
7460;SDS011;6757;52.258;12.840;2023-06-10T08:37:03;11.73;;;4.93;;
7460;SDS011;6757;52.258;12.840;2023-06-10T08:39:31;10.02;;;4.47;;
7460;SDS011;6757;52.258;12.840;2023-06-10T08:42:00;12.60;;;5.55;;
7460;SDS011;6757;52.258;12.840;2023-06-10T08:44:37;13.77;;;5.32;;
7460;SDS011;6757;52.258;12.840;2023-06-10T08:47:06;11.30;;;5.00;;
7460;SDS011;6757;52.258;12.840;2023-06-10T08:49:41;10.77;;;4.93;;
7460;SDS011;6757;52.258;12.840;2023-06-10T08:52:11;12.07;;;5.00;;
7460;SDS011;6757;52.258;12.840;2023-06-10T08:54:42;11.52;;;4.72;;
7460;SDS011;6757;52.258;12.840;2023-06-10T08:57:14;10.00;;;4.93;;
7460;SDS011;6757;52.258;12.840;2023-06-10T08:59:42;12.35;;;5.20;;
7460;SDS011;6757;52.258;12.840;2023-06-10T09:02:11;12.27;;;5.03;;
7460;SDS011;6757;52.258;12.840;2023-06-10T09:04:40;11.68;;;4.97;;
7460;SDS011;6757;52.258;12.840;2023-06-10T09:07:10;11.65;;;5.18;;
7460;SDS011;6757;52.258;12.840;2023-06-10T09:09:39;10.95;;;5.57;;
7460;SDS011;6757;52.258;12.840;2023-06-10T09:12:08;12.23;;;5.20;;
7460;SDS011;6757;52.258;12.840;2023-06-10T09:14:37;12.85;;;5.38;;
7460;SDS011;6757;52.258;12.840;2023-06-10T09:19:34;12.63;;;5.40;;
7460;SDS011;6757;52.258;12.840;2023-06-10T09:22:03;12.15;;;5.10;;
7460;SDS011;6757;52.258;12.840;2023-06-10T09:24:30;12.32;;;5.20;;
7460;SDS011;6757;52.258;12.840;2023-06-10T09:27:02;12.38;;;5.07;;
7460;SDS011;6757;52.258;12.840;2023-06-10T09:32:58;12.50;;;5.57;;
7460;SDS011;6757;52.258;12.840;2023-06-10T09:35:29;10.65;;;5.05;;
7460;SDS011;6757;52.258;12.840;2023-06-10T09:37:57;12.20;;;5.22;;
7460;SDS011;6757;52.258;12.840;2023-06-10T09:40:26;12.15;;;5.43;;
7460;SDS011;6757;52.258;12.840;2023-06-10T09:42:54;11.90;;;5.70;;
7460;SDS011;6757;52.258;12.840;2023-06-10T09:45:22;12.00;;;5.20;;
7460;SDS011;6757;52.258;12.840;2023-06-10T09:47:53;10.70;;;5.03;;
7460;SDS011;6757;52.258;12.840;2023-06-10T09:52:49;11.75;;;4.95;;
7460;SDS011;6757;52.258;12.840;2023-06-10T09:55:17;11.73;;;5.55;;
7460;SDS011;6757;52.258;12.840;2023-06-10T09:57:46;11.55;;;5.18;;
7460;SDS011;6757;52.258;12.840;2023-06-10T10:02:44;10.77;;;4.88;;
7460;SDS011;6757;52.258;12.840;2023-06-10T10:05:13;11.63;;;5.65;;
7460;SDS011;6757;52.258;12.840;2023-06-10T10:07:42;12.25;;;5.32;;
7460;SDS011;6757;52.258;12.840;2023-06-10T10:10:11;11.60;;;5.88;;
7460;SDS011;6757;52.258;12.840;2023-06-10T10:12:41;11.38;;;5.40;;
7460;SDS011;6757;52.258;12.840;2023-06-10T10:15:09;12.88;;;5.57;;
7460;SDS011;6757;52.258;12.840;2023-06-10T10:17:37;11.27;;;5.50;;
7460;SDS011;6757;52.258;12.840;2023-06-10T10:20:12;12.95;;;5.63;;
7460;SDS011;6757;52.258;12.840;2023-06-10T10:22:44;12.27;;;5.32;;
7460;SDS011;6757;52.258;12.840;2023-06-10T10:25:15;13.13;;;5.18;;
7460;SDS011;6757;52.258;12.840;2023-06-10T10:27:48;12.73;;;5.32;;
7460;SDS011;6757;52.258;12.840;2023-06-10T10:30:19;13.45;;;5.20;;
7460;SDS011;6757;52.258;12.840;2023-06-10T10:32:50;12.52;;;5.75;;
7460;SDS011;6757;52.258;12.840;2023-06-10T10:35:24;11.48;;;5.72;;
7460;SDS011;6757;52.258;12.840;2023-06-10T10:37:52;11.15;;;5.15;;
7460;SDS011;6757;52.258;12.840;2023-06-10T10:40:22;11.80;;;5.55;;
7460;SDS011;6757;52.258;12.840;2023-06-10T10:42:51;9.63;;;4.68;;
7460;SDS011;6757;52.258;12.840;2023-06-10T10:45:18;13.32;;;5.35;;
7460;SDS011;6757;52.258;12.840;2023-06-10T10:47:52;12.30;;;5.13;;
7460;SDS011;6757;52.258;12.840;2023-06-10T10:50:22;11.68;;;5.25;;
7460;SDS011;6757;52.258;12.840;2023-06-10T10:52:53;11.60;;;5.05;;
7460;SDS011;6757;52.258;12.840;2023-06-10T10:55:23;10.75;;;5.38;;
7460;SDS011;6757;52.258;12.840;2023-06-10T10:57:54;12.57;;;5.43;;
7460;SDS011;6757;52.258;12.840;2023-06-10T11:00:33;12.45;;;5.82;;
7460;SDS011;6757;52.258;12.840;2023-06-10T11:03:04;11.82;;;5.80;;
7460;SDS011;6757;52.258;12.840;2023-06-10T11:05:36;11.20;;;5.32;;
7460;SDS011;6757;52.258;12.840;2023-06-10T11:08:06;11.73;;;5.60;;
7460;SDS011;6757;52.258;12.840;2023-06-10T11:10:36;11.10;;;5.38;;
7460;SDS011;6757;52.258;12.840;2023-06-10T11:13:08;12.65;;;5.60;;
7460;SDS011;6757;52.258;12.840;2023-06-10T11:15:39;12.32;;;5.40;;
7460;SDS011;6757;52.258;12.840;2023-06-10T11:20:57;10.70;;;5.20;;
7460;SDS011;6757;52.258;12.840;2023-06-10T11:23:29;11.27;;;5.30;;
7460;SDS011;6757;52.258;12.840;2023-06-10T11:26:11;9.75;;;4.50;;
7460;SDS011;6757;52.258;12.840;2023-06-10T11:31:43;11.70;;;5.63;;
7460;SDS011;6757;52.258;12.840;2023-06-10T11:34:15;11.93;;;5.45;;
7460;SDS011;6757;52.258;12.840;2023-06-10T11:36:49;11.65;;;5.13;;
7460;SDS011;6757;52.258;12.840;2023-06-10T11:39:19;10.00;;;4.90;;
7460;SDS011;6757;52.258;12.840;2023-06-10T11:41:49;9.90;;;4.57;;
7460;SDS011;6757;52.258;12.840;2023-06-10T11:44:17;11.90;;;5.40;;
7460;SDS011;6757;52.258;12.840;2023-06-10T11:46:45;12.20;;;5.95;;
7460;SDS011;6757;52.258;12.840;2023-06-10T11:49:15;11.23;;;5.57;;
7460;SDS011;6757;52.258;12.840;2023-06-10T11:51:42;12.80;;;5.63;;
7460;SDS011;6757;52.258;12.840;2023-06-10T11:54:14;12.20;;;5.97;;
7460;SDS011;6757;52.258;12.840;2023-06-10T11:56:42;11.80;;;5.97;;
7460;SDS011;6757;52.258;12.840;2023-06-10T11:59:10;12.43;;;5.75;;
7460;SDS011;6757;52.258;12.840;2023-06-10T12:01:39;12.07;;;5.15;;
7460;SDS011;6757;52.258;12.840;2023-06-10T12:04:10;10.25;;;5.25;;
7460;SDS011;6757;52.258;12.840;2023-06-10T12:06:39;10.32;;;5.28;;
7460;SDS011;6757;52.258;12.840;2023-06-10T12:09:12;10.35;;;5.15;;
7460;SDS011;6757;52.258;12.840;2023-06-10T12:11:51;12.32;;;5.30;;
7460;SDS011;6757;52.258;12.840;2023-06-10T12:17:22;11.93;;;5.43;;
7460;SDS011;6757;52.258;12.840;2023-06-10T12:20:02;11.63;;;5.28;;
7460;SDS011;6757;52.258;12.840;2023-06-10T12:22:35;12.18;;;5.57;;
7460;SDS011;6757;52.258;12.840;2023-06-10T12:25:04;12.07;;;5.57;;
7460;SDS011;6757;52.258;12.840;2023-06-10T12:27:33;10.93;;;5.25;;
7460;SDS011;6757;52.258;12.840;2023-06-10T12:30:03;10.63;;;4.93;;
7460;SDS011;6757;52.258;12.840;2023-06-10T12:32:36;11.23;;;5.32;;
7460;SDS011;6757;52.258;12.840;2023-06-10T12:35:06;11.85;;;5.55;;
7460;SDS011;6757;52.258;12.840;2023-06-10T12:37:34;12.82;;;6.43;;
7460;SDS011;6757;52.258;12.840;2023-06-10T12:40:02;10.77;;;5.20;;
7460;SDS011;6757;52.258;12.840;2023-06-10T12:42:31;10.60;;;5.95;;
7460;SDS011;6757;52.258;12.840;2023-06-10T12:45:00;11.13;;;5.35;;
7460;SDS011;6757;52.258;12.840;2023-06-10T12:47:31;8.43;;;4.45;;
7460;SDS011;6757;52.258;12.840;2023-06-10T12:50:00;9.38;;;4.30;;
7460;SDS011;6757;52.258;12.840;2023-06-10T12:52:29;11.60;;;4.65;;
7460;SDS011;6757;52.258;12.840;2023-06-10T12:54:57;9.10;;;4.38;;
7460;SDS011;6757;52.258;12.840;2023-06-10T12:57:25;7.82;;;4.43;;
7460;SDS011;6757;52.258;12.840;2023-06-10T12:59:52;10.30;;;4.65;;
7460;SDS011;6757;52.258;12.840;2023-06-10T13:02:22;7.70;;;3.85;;
7460;SDS011;6757;52.258;12.840;2023-06-10T13:04:50;7.90;;;4.15;;
7460;SDS011;6757;52.258;12.840;2023-06-10T13:07:17;8.52;;;4.15;;
7460;SDS011;6757;52.258;12.840;2023-06-10T13:09:44;9.35;;;4.45;;
7460;SDS011;6757;52.258;12.840;2023-06-10T13:12:13;8.77;;;4.38;;
7460;SDS011;6757;52.258;12.840;2023-06-10T13:14:42;10.07;;;3.97;;
7460;SDS011;6757;52.258;12.840;2023-06-10T13:17:10;10.38;;;4.68;;
7460;SDS011;6757;52.258;12.840;2023-06-10T13:19:36;9.73;;;4.38;;
7460;SDS011;6757;52.258;12.840;2023-06-10T13:22:05;10.40;;;4.55;;
7460;SDS011;6757;52.258;12.840;2023-06-10T13:24:32;9.45;;;4.78;;
7460;SDS011;6757;52.258;12.840;2023-06-10T13:26:59;8.75;;;4.60;;
7460;SDS011;6757;52.258;12.840;2023-06-10T13:29:26;8.82;;;4.45;;
7460;SDS011;6757;52.258;12.840;2023-06-10T13:31:53;10.25;;;4.97;;
7460;SDS011;6757;52.258;12.840;2023-06-10T13:34:20;9.80;;;4.18;;
7460;SDS011;6757;52.258;12.840;2023-06-10T13:36:47;10.27;;;4.57;;
7460;SDS011;6757;52.258;12.840;2023-06-10T13:39:15;8.48;;;4.35;;
7460;SDS011;6757;52.258;12.840;2023-06-10T13:41:42;7.88;;;4.07;;
7460;SDS011;6757;52.258;12.840;2023-06-10T13:44:09;9.93;;;4.97;;
7460;SDS011;6757;52.258;12.840;2023-06-10T13:46:36;9.77;;;4.70;;
7460;SDS011;6757;52.258;12.840;2023-06-10T13:49:03;8.75;;;4.60;;
7460;SDS011;6757;52.258;12.840;2023-06-10T13:51:30;9.60;;;4.30;;
7460;SDS011;6757;52.258;12.840;2023-06-10T13:53:57;10.13;;;4.78;;
7460;SDS011;6757;52.258;12.840;2023-06-10T13:56:25;9.80;;;4.55;;
7460;SDS011;6757;52.258;12.840;2023-06-10T13:58:52;8.60;;;4.82;;
7460;SDS011;6757;52.258;12.840;2023-06-10T14:01:19;8.70;;;4.32;;
7460;SDS011;6757;52.258;12.840;2023-06-10T14:03:46;9.95;;;4.75;;
7460;SDS011;6757;52.258;12.840;2023-06-10T14:06:13;8.57;;;4.63;;
7460;SDS011;6757;52.258;12.840;2023-06-10T14:08:43;10.27;;;5.05;;
7460;SDS011;6757;52.258;12.840;2023-06-10T14:11:10;8.50;;;4.65;;
7460;SDS011;6757;52.258;12.840;2023-06-10T14:13:39;8.23;;;4.43;;
7460;SDS011;6757;52.258;12.840;2023-06-10T14:16:06;9.05;;;4.53;;
7460;SDS011;6757;52.258;12.840;2023-06-10T14:18:33;9.38;;;4.38;;
7460;SDS011;6757;52.258;12.840;2023-06-10T14:21:00;12.23;;;5.10;;
7460;SDS011;6757;52.258;12.840;2023-06-10T14:23:27;8.38;;;4.13;;
7460;SDS011;6757;52.258;12.840;2023-06-10T14:25:54;10.93;;;4.60;;
7460;SDS011;6757;52.258;12.840;2023-06-10T14:28:21;10.95;;;5.25;;
7460;SDS011;6757;52.258;12.840;2023-06-10T14:30:50;11.95;;;5.13;;
7460;SDS011;6757;52.258;12.840;2023-06-10T14:33:17;12.52;;;5.38;;
7460;SDS011;6757;52.258;12.840;2023-06-10T14:35:44;8.63;;;4.03;;
7460;SDS011;6757;52.258;12.840;2023-06-10T14:38:11;10.48;;;4.82;;
7460;SDS011;6757;52.258;12.840;2023-06-10T14:40:38;11.65;;;4.78;;
7460;SDS011;6757;52.258;12.840;2023-06-10T14:43:05;10.18;;;4.63;;
7460;SDS011;6757;52.258;12.840;2023-06-10T14:45:35;10.95;;;4.70;;
7460;SDS011;6757;52.258;12.840;2023-06-10T14:48:03;11.68;;;5.50;;
7460;SDS011;6757;52.258;12.840;2023-06-10T14:50:31;11.70;;;5.97;;
7460;SDS011;6757;52.258;12.840;2023-06-10T14:52:58;12.30;;;5.10;;
7460;SDS011;6757;52.258;12.840;2023-06-10T14:55:26;11.35;;;5.35;;
7460;SDS011;6757;52.258;12.840;2023-06-10T14:57:53;14.30;;;5.20;;
7460;SDS011;6757;52.258;12.840;2023-06-10T15:00:20;10.65;;;4.78;;
7460;SDS011;6757;52.258;12.840;2023-06-10T15:02:49;11.02;;;4.65;;
7460;SDS011;6757;52.258;12.840;2023-06-10T15:05:18;10.50;;;4.80;;
7460;SDS011;6757;52.258;12.840;2023-06-10T15:07:45;11.55;;;5.18;;
7460;SDS011;6757;52.258;12.840;2023-06-10T15:10:13;11.73;;;5.03;;
7460;SDS011;6757;52.258;12.840;2023-06-10T15:12:41;13.45;;;5.18;;
7460;SDS011;6757;52.258;12.840;2023-06-10T15:15:08;11.30;;;4.97;;
7460;SDS011;6757;52.258;12.840;2023-06-10T15:17:35;12.90;;;5.70;;
7460;SDS011;6757;52.258;12.840;2023-06-10T15:20:03;11.80;;;5.68;;
7460;SDS011;6757;52.258;12.840;2023-06-10T15:22:33;14.00;;;5.68;;
7460;SDS011;6757;52.258;12.840;2023-06-10T15:25:00;16.45;;;6.07;;